createdAt,value
2018-05-05T00:00:31.941Z,3.73
2018-05-05T00:02:59.328Z,3.10
2018-05-05T00:05:26.715Z,3.47
2018-05-05T00:07:54.107Z,4.20
2018-05-05T00:10:21.496Z,3.80
2018-05-05T00:12:48.887Z,4.05
2018-05-05T00:15:16.281Z,3.93
2018-05-05T00:17:43.660Z,3.13
2018-05-05T00:20:11.056Z,5.00
2018-05-05T00:22:38.447Z,4.17
2018-05-05T00:25:05.832Z,3.27
2018-05-05T00:27:33.217Z,3.13
2018-05-05T00:30:00.619Z,3.78
2018-05-05T00:32:27.991Z,3.90
2018-05-05T00:34:55.386Z,4.07
2018-05-05T00:37:22.785Z,3.47
2018-05-05T00:39:50.159Z,3.53
2018-05-05T00:42:17.568Z,3.90
2018-05-05T00:44:44.955Z,3.50
2018-05-05T00:47:12.341Z,4.25
2018-05-05T00:49:39.721Z,3.27
2018-05-05T00:52:07.143Z,4.23
2018-05-05T00:54:46.205Z,3.05
2018-05-05T00:57:13.609Z,6.00
2018-05-05T00:59:40.992Z,3.37
2018-05-05T01:02:08.388Z,3.43
2018-05-05T01:04:35.781Z,3.70
2018-05-05T01:07:03.168Z,3.40
2018-05-05T01:09:30.561Z,3.57
2018-05-05T01:11:57.960Z,4.25
2018-05-05T01:14:25.367Z,3.57
2018-05-05T01:16:52.738Z,3.50
2018-05-05T01:19:20.128Z,3.73
2018-05-05T01:21:47.527Z,3.77
2018-05-05T01:24:14.917Z,3.90
2018-05-05T01:26:42.315Z,3.27
2018-05-05T01:29:09.696Z,4.00
2018-05-05T01:31:37.098Z,3.90
2018-05-05T01:34:04.482Z,3.50
2018-05-05T01:36:31.878Z,4.80
2018-05-05T01:39:00.007Z,3.50
2018-05-05T01:41:27.423Z,3.83
2018-05-05T01:43:54.800Z,3.15
2018-05-05T01:46:22.180Z,3.43
2018-05-05T01:48:49.613Z,4.03
2018-05-05T01:51:16.986Z,3.58
2018-05-05T01:53:44.387Z,3.67
2018-05-05T01:56:11.779Z,3.73
2018-05-05T01:58:39.184Z,3.40
2018-05-05T02:01:06.584Z,3.43
2018-05-05T02:03:33.979Z,3.77
2018-05-05T02:06:03.227Z,3.92
2018-05-05T02:08:30.617Z,4.75
2018-05-05T02:10:58.008Z,4.40
2018-05-05T02:13:25.396Z,3.33
2018-05-05T02:15:52.778Z,3.80
2018-05-05T02:18:20.177Z,3.50
2018-05-05T02:20:47.551Z,3.33
2018-05-05T02:23:14.950Z,4.70
2018-05-05T02:25:42.375Z,3.70
2018-05-05T02:28:09.756Z,4.13
2018-05-05T02:30:37.153Z,3.42
2018-05-05T02:33:04.546Z,4.50
2018-05-05T02:35:31.933Z,4.57
2018-05-05T02:37:59.333Z,4.60
2018-05-05T02:40:26.718Z,3.70
2018-05-05T02:42:54.120Z,3.30
2018-05-05T02:45:21.504Z,3.87
2018-05-05T02:47:49.645Z,3.42
2018-05-05T02:50:17.039Z,3.87
2018-05-05T02:52:44.424Z,4.73
2018-05-05T02:55:11.822Z,4.83
2018-05-05T02:57:39.199Z,3.80
2018-05-05T03:00:06.602Z,3.77
2018-05-05T03:02:33.996Z,4.17
2018-05-05T03:05:01.387Z,3.37
2018-05-05T03:07:28.779Z,4.33
2018-05-05T03:09:56.160Z,3.90
2018-05-05T03:12:23.548Z,4.47
2018-05-05T03:14:50.946Z,4.23
2018-05-05T03:17:18.328Z,4.75
2018-05-05T03:19:45.731Z,3.60
2018-05-05T03:22:13.116Z,4.20
2018-05-05T03:24:40.521Z,4.05
2018-05-05T03:27:07.927Z,3.97
2018-05-05T03:29:35.318Z,3.97
2018-05-05T03:32:03.016Z,3.95
2018-05-05T03:34:30.418Z,4.40
2018-05-05T03:36:57.795Z,4.80
2018-05-05T03:39:25.211Z,4.37
2018-05-05T03:41:52.591Z,5.27
2018-05-05T03:44:19.983Z,3.77
2018-05-05T03:46:47.372Z,4.40
2018-05-05T03:49:14.760Z,4.87
2018-05-05T03:51:43.812Z,5.50
2018-05-05T03:54:11.216Z,5.00
2018-05-05T03:56:38.599Z,5.33
2018-05-05T03:59:17.627Z,6.20
2018-05-05T04:01:56.901Z,5.00
2018-05-05T04:04:24.288Z,5.30
2018-05-05T04:06:52.040Z,5.30
2018-05-05T04:09:19.445Z,4.20
2018-05-05T04:11:46.839Z,4.93
2018-05-05T04:14:14.225Z,5.00
2018-05-05T04:16:41.615Z,4.50
2018-05-05T04:19:08.992Z,4.77
2018-05-05T04:21:36.711Z,4.90
2018-05-05T04:24:04.092Z,3.95
2018-05-05T04:26:31.483Z,5.43
2018-05-05T04:28:58.863Z,4.90
2018-05-05T04:31:26.272Z,4.17
2018-05-05T04:33:53.664Z,5.00
2018-05-05T04:36:21.053Z,4.70
2018-05-05T04:38:48.433Z,4.60
2018-05-05T04:41:15.905Z,4.07
2018-05-05T04:43:43.293Z,4.70
2018-05-05T04:46:10.683Z,4.97
2018-05-05T04:48:38.079Z,5.30
2018-05-05T04:51:05.470Z,4.50
2018-05-05T04:53:32.852Z,3.73
2018-05-05T04:56:00.274Z,4.90
2018-05-05T04:58:27.655Z,3.90
2018-05-05T05:00:55.058Z,4.47
2018-05-05T05:03:22.447Z,4.93
2018-05-05T05:05:49.835Z,4.10
2018-05-05T05:08:17.224Z,4.43
2018-05-05T05:10:44.614Z,4.63
2018-05-05T05:13:12.000Z,3.80
2018-05-05T05:15:39.399Z,4.73
2018-05-05T05:18:06.792Z,3.80
2018-05-05T05:20:34.184Z,4.60
2018-05-05T05:23:01.579Z,4.73
2018-05-05T05:25:28.967Z,3.93
2018-05-05T05:27:56.364Z,3.77
2018-05-05T05:30:24.696Z,4.37
2018-05-05T05:32:52.103Z,4.37
2018-05-05T05:35:19.482Z,4.00
2018-05-05T05:37:46.872Z,3.67
2018-05-05T05:40:14.262Z,4.47
2018-05-05T05:42:41.666Z,3.50
2018-05-05T05:45:09.047Z,4.00
2018-05-05T05:47:36.590Z,3.70
2018-05-05T05:50:03.957Z,3.57
2018-05-05T05:52:31.394Z,3.17
2018-05-05T05:54:58.772Z,3.60
2018-05-05T05:57:26.172Z,4.60
2018-05-05T05:59:54.702Z,3.47
2018-05-05T06:02:22.099Z,3.70
2018-05-05T06:04:49.518Z,3.77
2018-05-05T06:07:16.944Z,4.45
2018-05-05T06:09:44.327Z,3.80
2018-05-05T06:12:11.719Z,4.10
2018-05-05T06:14:39.099Z,3.70
2018-05-05T06:17:06.740Z,3.40
2018-05-05T06:19:34.138Z,3.93
2018-05-05T06:22:01.975Z,3.70
2018-05-05T06:24:29.426Z,4.37
2018-05-05T06:26:56.835Z,4.93
2018-05-05T06:29:24.881Z,4.70
2018-05-05T06:31:52.271Z,4.30
2018-05-05T06:34:19.668Z,3.33
2018-05-05T06:36:47.736Z,3.97
2018-05-05T06:39:15.182Z,3.57
2018-05-05T06:41:42.587Z,4.53
2018-05-05T06:44:10.004Z,5.00
2018-05-05T06:46:37.403Z,3.45
2018-05-05T06:49:04.795Z,4.60
2018-05-05T06:51:32.176Z,4.40
2018-05-05T06:53:59.583Z,3.60
2018-05-05T06:56:27.664Z,4.45
2018-05-05T06:58:55.060Z,3.73
2018-05-05T07:01:22.576Z,4.63
2018-05-05T07:03:49.989Z,4.60
2018-05-05T07:06:17.492Z,4.67
2018-05-05T07:08:45.086Z,3.90
2018-05-05T07:11:12.504Z,3.90
2018-05-05T07:13:39.849Z,4.37
2018-05-05T07:16:07.228Z,4.55
2018-05-05T07:18:34.656Z,4.90
2018-05-05T07:21:02.904Z,4.13
2018-05-05T07:23:30.291Z,3.87
2018-05-05T07:25:57.713Z,4.47
2018-05-05T07:28:25.583Z,3.40
2018-05-05T07:30:52.976Z,4.77
2018-05-05T07:33:20.372Z,3.90
2018-05-05T07:35:47.781Z,4.53
2018-05-05T07:38:15.168Z,4.33
2018-05-05T07:40:42.575Z,3.97
2018-05-05T07:43:09.968Z,4.57
2018-05-05T07:45:37.362Z,4.60
2018-05-05T07:48:05.552Z,4.40
2018-05-05T07:50:32.948Z,3.93
2018-05-05T07:53:00.332Z,4.10
2018-05-05T07:55:27.731Z,3.85
2018-05-05T07:57:55.356Z,4.30
2018-05-05T08:00:22.747Z,5.03
2018-05-05T08:02:50.144Z,4.20
2018-05-05T08:05:17.677Z,5.10
2018-05-05T08:07:45.066Z,4.30
2018-05-05T08:10:12.467Z,4.50
2018-05-05T08:12:40.096Z,4.20
2018-05-05T08:15:07.820Z,5.00
2018-05-05T08:17:35.202Z,5.10
2018-05-05T08:20:02.593Z,4.78
2018-05-05T08:22:30.961Z,6.00
2018-05-05T08:24:58.354Z,5.20
2018-05-05T08:27:25.736Z,5.00
2018-05-05T08:29:53.139Z,4.55
2018-05-05T08:32:20.631Z,5.20
2018-05-05T08:34:48.023Z,5.57
2018-05-05T08:37:15.435Z,5.40
2018-05-05T08:39:42.989Z,5.17
2018-05-05T08:42:10.836Z,6.10
2018-05-05T08:44:38.215Z,5.37
2018-05-05T08:47:05.915Z,6.23
2018-05-05T08:49:33.648Z,5.07
2018-05-05T08:52:01.048Z,5.47
2018-05-05T08:54:28.424Z,5.10
2018-05-05T08:56:55.836Z,5.60
2018-05-05T08:59:23.249Z,5.90
2018-05-05T09:01:50.652Z,5.83
2018-05-05T09:04:18.041Z,5.55
2018-05-05T09:06:45.442Z,6.87
2018-05-05T09:09:12.846Z,4.80
2018-05-05T09:11:40.220Z,5.28
2018-05-05T09:14:07.762Z,6.90
2018-05-05T09:16:35.148Z,7.30
2018-05-05T09:19:03.104Z,6.47
2018-05-05T09:21:30.500Z,7.20
2018-05-05T09:23:57.929Z,5.80
2018-05-05T09:26:25.324Z,6.40
2018-05-05T09:28:52.713Z,5.40
2018-05-05T09:31:20.552Z,6.20
2018-05-05T09:33:48.369Z,7.40
2018-05-05T09:36:15.705Z,6.37
2018-05-05T09:38:43.094Z,6.35
2018-05-05T09:41:10.494Z,6.07
2018-05-05T09:43:37.880Z,6.87
2018-05-05T09:46:05.276Z,6.50
2018-05-05T09:48:32.667Z,7.90
2018-05-05T09:51:00.145Z,7.80
2018-05-05T09:53:27.533Z,7.30
2018-05-05T09:55:54.930Z,7.10
2018-05-05T09:58:22.439Z,6.70
2018-05-05T10:00:49.961Z,6.13
2018-05-05T10:03:20.547Z,6.93
2018-05-05T10:05:47.968Z,7.07
2018-05-05T10:08:15.391Z,7.20
2018-05-05T10:10:42.772Z,7.37
2018-05-05T10:13:10.164Z,6.57
2018-05-05T10:15:37.560Z,7.60
2018-05-05T10:18:05.676Z,8.57
2018-05-05T10:20:33.081Z,6.40
2018-05-05T10:23:00.626Z,6.97
2018-05-05T10:25:28.020Z,5.93
2018-05-05T10:27:56.434Z,6.23
2018-05-05T10:30:23.823Z,7.03
2018-05-05T10:32:51.228Z,7.35
2018-05-05T10:35:18.605Z,7.32
2018-05-05T10:37:45.988Z,6.93
2018-05-05T10:40:13.379Z,6.23
2018-05-05T10:42:40.764Z,6.63
2018-05-05T10:45:08.159Z,7.50
2018-05-05T10:47:35.552Z,6.70
2018-05-05T10:50:02.942Z,6.80
2018-05-05T10:52:30.332Z,7.37
2018-05-05T10:54:57.852Z,7.23
2018-05-05T10:57:25.252Z,7.75
2018-05-05T10:59:52.650Z,7.65
2018-05-05T11:02:20.054Z,7.10
2018-05-05T11:04:47.547Z,6.85
2018-05-05T11:07:14.935Z,7.62
2018-05-05T11:09:42.326Z,7.63
2018-05-05T11:12:09.782Z,7.60
2018-05-05T11:14:38.164Z,7.32
2018-05-05T11:17:05.560Z,7.90
2018-05-05T11:19:32.956Z,8.80
2018-05-05T11:22:00.536Z,8.13
2018-05-05T11:24:27.946Z,7.40
2018-05-05T11:26:55.323Z,8.37
2018-05-05T11:29:22.863Z,8.55
2018-05-05T11:31:51.015Z,8.40
2018-05-05T11:34:18.407Z,7.97
2018-05-05T11:36:46.692Z,7.53
2018-05-05T11:39:14.027Z,7.13
2018-05-05T11:41:41.414Z,6.77
2018-05-05T11:44:09.580Z,7.30
2018-05-05T11:46:36.966Z,7.50
2018-05-05T11:49:04.354Z,7.27
2018-05-05T11:51:31.733Z,7.03
2018-05-05T11:53:59.470Z,8.10
2018-05-05T11:56:26.933Z,6.00
2018-05-05T11:58:54.243Z,8.00
2018-05-05T12:01:21.641Z,6.63
2018-05-05T12:03:49.127Z,7.00
2018-05-05T12:06:18.171Z,7.72
2018-05-05T12:08:45.567Z,6.60
2018-05-05T12:11:12.964Z,7.20
2018-05-05T12:13:41.542Z,6.30
2018-05-05T12:16:09.200Z,7.03
2018-05-05T12:18:37.609Z,6.70
2018-05-05T12:21:05.008Z,7.07
2018-05-05T12:23:33.412Z,6.28
2018-05-05T12:26:00.807Z,6.60
2018-05-05T12:28:28.199Z,6.73
2018-05-05T12:30:55.586Z,5.87
2018-05-05T12:33:23.132Z,6.75
2018-05-05T12:35:50.548Z,6.77
2018-05-05T12:38:17.932Z,7.20
2018-05-05T12:40:45.319Z,7.00
2018-05-05T12:43:12.935Z,6.77
2018-05-05T12:45:40.336Z,8.07
2018-05-05T12:48:08.453Z,6.10
2018-05-05T12:50:36.828Z,6.53
2018-05-05T12:53:04.223Z,7.70
2018-05-05T12:55:31.629Z,6.60
2018-05-05T12:57:59.023Z,6.37
2018-05-05T13:00:26.516Z,6.67
2018-05-05T13:02:55.907Z,5.80
2018-05-05T13:05:23.350Z,7.85
2018-05-05T13:07:50.739Z,5.97
2018-05-05T13:10:18.982Z,5.97
2018-05-05T13:12:46.368Z,6.00
2018-05-05T13:15:13.963Z,5.87
2018-05-05T13:17:42.026Z,6.03
2018-05-05T13:20:09.426Z,5.70
2018-05-05T13:22:36.815Z,6.80
2018-05-05T13:25:04.201Z,4.90
2018-05-05T13:27:32.026Z,6.03
2018-05-05T13:29:59.407Z,6.17
2018-05-05T13:32:26.803Z,5.77
2018-05-05T13:34:54.292Z,6.57
2018-05-05T13:37:22.355Z,5.43
2018-05-05T13:39:49.739Z,4.77
2018-05-05T13:42:17.127Z,6.07
2018-05-05T13:44:45.403Z,5.05
2018-05-05T13:47:13.577Z,5.90
2018-05-05T13:49:45.885Z,5.83
2018-05-05T13:52:13.399Z,5.67
2018-05-05T13:54:40.836Z,4.47
2018-05-05T13:57:08.229Z,5.00
2018-05-05T13:59:35.629Z,5.13
2018-05-05T14:02:03.788Z,5.47
2018-05-05T14:04:31.355Z,4.83
2018-05-05T14:06:58.751Z,5.10
2018-05-05T14:09:26.216Z,4.57
2018-05-05T14:11:53.625Z,4.50
2018-05-05T14:14:21.029Z,3.83
2018-05-05T14:16:48.412Z,4.37
2018-05-05T14:19:16.734Z,4.95
2018-05-05T14:21:44.122Z,4.73
2018-05-05T14:24:11.527Z,4.47
2018-05-05T14:26:38.913Z,4.80
2018-05-05T14:29:06.304Z,4.47
2018-05-05T14:31:33.704Z,5.00
2018-05-05T14:34:01.084Z,4.20
2018-05-05T14:36:28.645Z,4.20
2018-05-05T14:38:56.035Z,5.00
2018-05-05T14:41:23.427Z,4.70
2018-05-05T14:43:50.831Z,5.07
2018-05-05T14:46:18.550Z,4.40
2018-05-05T14:48:45.932Z,3.67
2018-05-05T14:51:13.356Z,4.70
2018-05-05T14:53:40.865Z,4.27
2018-05-05T14:56:08.269Z,4.00
2018-05-05T14:58:35.658Z,4.17
2018-05-05T15:01:03.044Z,4.03
2018-05-05T15:03:30.445Z,4.17
2018-05-05T15:05:57.825Z,3.90
2018-05-05T15:08:25.232Z,3.90
2018-05-05T15:10:52.616Z,5.50
2018-05-05T15:13:20.116Z,3.75
2018-05-05T15:15:48.153Z,4.15
2018-05-05T15:18:15.567Z,4.00
2018-05-05T15:20:43.196Z,4.30
2018-05-05T15:23:11.095Z,4.20
2018-05-05T15:25:38.620Z,4.80
2018-05-05T15:28:06.107Z,4.13
2018-05-05T15:30:33.519Z,3.55
2018-05-05T15:33:01.012Z,4.40
2018-05-05T15:35:28.405Z,3.42
2018-05-05T15:37:56.012Z,4.33
2018-05-05T15:40:23.403Z,4.05
2018-05-05T15:42:51.154Z,3.25
2018-05-05T15:45:19.084Z,3.92
2018-05-05T15:47:47.308Z,3.73
2018-05-05T15:50:15.371Z,3.47
2018-05-05T15:52:43.388Z,3.53
2018-05-05T15:55:13.123Z,4.20
2018-05-05T15:57:40.687Z,4.33
2018-05-05T16:00:08.076Z,3.40
2018-05-05T16:02:35.478Z,3.33
2018-05-05T16:05:02.887Z,3.10
2018-05-05T16:07:30.292Z,3.80
2018-05-05T16:09:57.691Z,2.93
2018-05-05T16:12:25.090Z,3.97
2018-05-05T16:14:52.535Z,3.27
2018-05-05T16:17:20.312Z,3.20
2018-05-05T16:19:47.732Z,4.20
2018-05-05T16:22:15.182Z,3.90
2018-05-05T16:24:42.638Z,4.13
2018-05-05T16:27:10.044Z,3.57
2018-05-05T16:29:37.430Z,4.10
2018-05-05T16:32:04.825Z,3.60
2018-05-05T16:34:32.224Z,3.70
2018-05-05T16:36:59.621Z,3.20
2018-05-05T16:39:27.024Z,3.37
2018-05-05T16:41:54.419Z,3.40
2018-05-05T16:44:21.959Z,3.73
2018-05-05T16:46:49.343Z,3.20
2018-05-05T16:49:16.752Z,3.90
2018-05-05T16:51:45.071Z,3.23
2018-05-05T16:54:12.691Z,2.87
2018-05-05T16:56:40.092Z,3.33
2018-05-05T16:59:07.466Z,3.33
2018-05-05T17:01:35.170Z,3.37
2018-05-05T17:04:03.465Z,3.10
2018-05-05T17:06:30.849Z,3.60
2018-05-05T17:08:58.249Z,3.53
2018-05-05T17:11:25.639Z,3.47
2018-05-05T17:13:53.026Z,2.83
2018-05-05T17:16:20.407Z,3.00
2018-05-05T17:18:47.805Z,3.10
2018-05-05T17:21:15.184Z,2.90
2018-05-05T17:23:42.580Z,2.80
2018-05-05T17:26:09.975Z,3.60
2018-05-05T17:28:37.361Z,3.50
2018-05-05T17:31:04.766Z,2.73
2018-05-05T17:33:32.141Z,3.43
2018-05-05T17:36:00.212Z,2.93
2018-05-05T17:38:27.594Z,3.17
2018-05-05T17:40:55.027Z,3.13
2018-05-05T17:43:22.418Z,4.10
2018-05-05T17:45:49.820Z,2.67
2018-05-05T17:48:17.208Z,3.10
2018-05-05T17:50:44.860Z,3.07
2018-05-05T17:53:12.319Z,3.17
2018-05-05T17:55:39.727Z,2.80
2018-05-05T17:58:07.113Z,2.83
2018-05-05T18:00:34.517Z,3.43
2018-05-05T18:03:02.455Z,2.78
2018-05-05T18:05:30.273Z,3.10
2018-05-05T18:07:57.668Z,3.20
2018-05-05T18:10:25.057Z,2.92
2018-05-05T18:12:53.315Z,3.40
2018-05-05T18:15:20.700Z,3.40
2018-05-05T18:17:48.104Z,3.40
2018-05-05T18:20:15.496Z,3.23
2018-05-05T18:22:42.887Z,3.10
2018-05-05T18:25:10.284Z,2.53
2018-05-05T18:27:38.368Z,2.90
2018-05-05T18:30:05.774Z,3.23
2018-05-05T18:32:33.160Z,3.47
2018-05-05T18:35:01.265Z,3.40
2018-05-05T18:37:28.665Z,3.07
2018-05-05T18:39:56.049Z,2.97
2018-05-05T18:42:24.315Z,3.42
2018-05-05T18:44:51.703Z,3.10
2018-05-05T18:47:19.109Z,3.60
2018-05-05T18:49:46.493Z,3.83
2018-05-05T18:52:13.900Z,3.13
2018-05-05T18:54:41.894Z,3.50
2018-05-05T18:57:09.295Z,2.90
2018-05-05T18:59:36.687Z,2.50
2018-05-05T19:02:04.081Z,3.50
2018-05-05T19:04:31.466Z,2.37
2018-05-05T19:06:59.824Z,2.80
2018-05-05T19:09:27.556Z,2.73
2018-05-05T19:11:55.290Z,3.22
2018-05-05T19:14:22.681Z,3.13
2018-05-05T19:16:50.080Z,3.20
2018-05-05T19:19:17.510Z,3.47
2018-05-05T19:21:45.472Z,2.30
2018-05-05T19:24:12.864Z,2.90
2018-05-05T19:26:40.250Z,3.50
2018-05-05T19:29:07.673Z,3.08
2018-05-05T19:31:35.052Z,3.10
2018-05-05T19:36:36.213Z,3.03
2018-05-05T19:39:05.168Z,2.73
2018-05-05T19:41:32.807Z,3.50
2018-05-05T19:44:00.579Z,3.07
2018-05-05T19:46:27.972Z,3.00
2018-05-05T19:48:55.358Z,2.50
2018-05-05T19:51:22.760Z,3.40
2018-05-05T19:53:50.151Z,3.17
2018-05-05T19:56:17.579Z,3.00
2018-05-05T19:58:45.769Z,3.50
2018-05-05T20:01:13.141Z,3.33
2018-05-05T20:03:41.317Z,3.17
2018-05-05T20:06:09.619Z,2.92
2018-05-05T20:08:37.317Z,3.20
2018-05-05T20:11:04.784Z,3.80
2018-05-05T20:13:32.248Z,3.93
2018-05-05T20:16:01.094Z,4.30
2018-05-05T20:18:28.497Z,3.80
2018-05-05T20:20:56.167Z,3.53
2018-05-05T20:23:23.623Z,3.22
2018-05-05T20:25:52.002Z,3.10
2018-05-05T20:28:19.849Z,3.40
2018-05-05T20:30:48.354Z,3.13
2018-05-05T20:33:16.101Z,4.28
2018-05-05T20:35:43.481Z,3.93
2018-05-05T20:38:11.478Z,3.17
2018-05-05T20:40:38.860Z,3.70
2018-05-05T20:43:06.240Z,4.13
2018-05-05T20:45:33.633Z,3.65
2018-05-05T20:48:01.086Z,4.23
2018-05-05T20:50:28.478Z,3.83
2018-05-05T20:52:55.864Z,4.43
2018-05-05T20:55:23.257Z,3.70
2018-05-05T20:57:50.642Z,3.90
2018-05-05T21:00:18.111Z,3.80
2018-05-05T21:02:45.502Z,3.87
2018-05-05T21:05:12.891Z,4.20
2018-05-05T21:07:41.178Z,4.40
2018-05-05T21:10:08.572Z,4.22
2018-05-05T21:12:35.959Z,4.43
2018-05-05T21:15:03.348Z,3.53
2018-05-05T21:17:31.552Z,5.17
2018-05-05T21:19:59.570Z,4.37
2018-05-05T21:22:27.413Z,4.10
2018-05-05T21:24:54.813Z,3.43
2018-05-05T21:27:22.244Z,4.77
2018-05-05T21:29:49.628Z,4.40
2018-05-05T21:32:17.079Z,4.05
2018-05-05T21:34:44.521Z,3.53
2018-05-05T21:37:11.977Z,4.60
2018-05-05T21:39:39.433Z,4.15
2018-05-05T21:42:09.782Z,4.20
2018-05-05T21:44:37.198Z,4.57
2018-05-05T21:47:04.593Z,4.80
2018-05-05T21:49:32.026Z,4.87
2018-05-05T21:51:59.509Z,4.97
2018-05-05T21:54:26.961Z,4.60
2018-05-05T21:56:54.392Z,3.70
2018-05-05T22:02:38.159Z,4.97
2018-05-05T22:05:05.600Z,5.10
2018-05-05T22:07:32.993Z,5.50
2018-05-05T22:10:00.373Z,5.30
2018-05-05T22:12:27.792Z,4.43
2018-05-05T22:14:55.156Z,4.90
2018-05-05T22:17:22.574Z,5.25
2018-05-05T22:19:49.964Z,4.67
2018-05-05T22:22:18.408Z,4.97
2018-05-05T22:24:45.788Z,4.37
2018-05-05T22:27:13.180Z,5.05
2018-05-05T22:29:40.620Z,5.47
2018-05-05T22:32:08.059Z,5.33
2018-05-05T22:34:36.263Z,5.40
2018-05-05T22:37:04.476Z,5.00
2018-05-05T22:39:32.715Z,5.22
2018-05-05T22:42:01.897Z,4.73
2018-05-05T22:44:29.264Z,4.63
2018-05-05T22:46:56.663Z,4.33
2018-05-05T22:49:24.155Z,6.03
2018-05-05T22:51:51.608Z,4.97
2018-05-05T22:54:19.067Z,5.00
2018-05-05T22:56:46.528Z,3.80
2018-05-05T22:59:13.975Z,5.33
2018-05-05T23:01:42.188Z,5.70
2018-05-05T23:04:09.606Z,4.95
2018-05-05T23:06:36.995Z,5.63
2018-05-05T23:09:05.066Z,5.10
2018-05-05T23:11:32.531Z,5.70
2018-05-05T23:14:00.988Z,5.60
2018-05-05T23:16:28.463Z,5.40
2018-05-05T23:18:55.916Z,5.43
2018-05-05T23:21:23.363Z,5.27
2018-05-05T23:23:50.828Z,4.97
2018-05-05T23:26:18.285Z,5.78
2018-05-05T23:28:46.012Z,4.90
2018-05-05T23:31:13.409Z,5.23
2018-05-05T23:33:40.905Z,6.07
2018-05-05T23:36:08.284Z,6.10
2018-05-05T23:38:36.914Z,5.90
2018-05-05T23:41:05.109Z,6.03
2018-05-05T23:43:34.483Z,5.63
2018-05-05T23:46:02.704Z,7.53
2018-05-05T23:48:30.621Z,5.83
2018-05-05T23:50:58.109Z,5.90
2018-05-05T23:53:25.563Z,6.40
2018-05-05T23:55:53.003Z,5.40
2018-05-05T23:58:20.390Z,4.90
